createdAt,value
2022-10-17T00:01:51.560Z,42.05
2022-10-17T00:04:21.692Z,44.10
2022-10-17T00:06:51.920Z,49.38
2022-10-17T00:09:21.936Z,43.63
2022-10-17T00:11:51.900Z,33.05
2022-10-17T00:14:21.924Z,41.33
2022-10-17T00:16:54.568Z,36.03
2022-10-17T00:19:24.663Z,42.45
2022-10-17T00:21:55.192Z,36.97
2022-10-17T00:24:25.532Z,29.95
2022-10-17T00:26:55.517Z,33.70
2022-10-17T00:29:25.618Z,33.22
2022-10-17T00:32:01.189Z,35.53
2022-10-17T00:34:32.520Z,33.15
2022-10-17T00:37:02.609Z,27.95
2022-10-17T00:39:32.616Z,33.53
2022-10-17T00:42:02.643Z,27.90
2022-10-17T00:45:02.471Z,34.08
2022-10-17T00:47:36.603Z,39.17
2022-10-17T00:50:07.828Z,34.28
2022-10-17T00:52:38.097Z,42.33
2022-10-17T00:55:13.941Z,32.47
2022-10-17T00:57:46.504Z,38.30
2022-10-17T01:00:18.454Z,32.15
2022-10-17T01:02:51.782Z,35.13
2022-10-17T01:05:22.644Z,31.40
2022-10-17T01:07:55.340Z,40.40
2022-10-17T01:10:27.770Z,44.78
2022-10-17T01:13:09.777Z,40.40
2022-10-17T01:15:49.892Z,42.50
2022-10-17T01:18:35.704Z,44.42
2022-10-17T01:21:28.588Z,36.72
2022-10-17T01:24:27.420Z,45.55
2022-10-17T01:27:13.461Z,40.00
2022-10-17T01:30:00.484Z,34.38
2022-10-17T01:32:40.275Z,37.42
2022-10-17T01:35:16.184Z,35.17
2022-10-17T01:40:47.423Z,39.80
2022-10-17T01:43:23.965Z,33.10
2022-10-17T01:45:59.064Z,47.47
2022-10-17T01:48:38.541Z,34.70
2022-10-17T01:51:14.261Z,29.23
2022-10-17T01:53:50.185Z,30.27
2022-10-17T01:56:22.600Z,35.72
2022-10-17T01:58:56.797Z,36.88
2022-10-17T02:01:29.129Z,35.13
2022-10-17T02:04:03.631Z,31.73
2022-10-17T02:06:37.815Z,31.98
2022-10-17T02:09:24.281Z,27.48
2022-10-17T02:12:06.967Z,32.85
2022-10-17T02:14:49.516Z,33.30
2022-10-17T02:17:33.548Z,34.85
2022-10-17T02:20:14.040Z,34.42
2022-10-17T02:22:52.377Z,29.10
2022-10-17T02:25:30.650Z,34.03
2022-10-17T02:28:09.789Z,29.08
2022-10-17T02:30:48.731Z,32.33
2022-10-17T02:33:26.434Z,36.92
2022-10-17T02:36:07.680Z,30.63
2022-10-17T02:38:38.541Z,32.40
2022-10-17T02:41:12.333Z,34.97
2022-10-17T02:43:45.436Z,41.55
2022-10-17T02:46:20.979Z,25.60
2022-10-17T02:48:54.536Z,30.92
2022-10-17T02:51:35.012Z,29.17
2022-10-17T02:54:12.865Z,32.22
2022-10-17T02:56:49.952Z,29.23
2022-10-17T02:59:24.253Z,30.70
2022-10-17T03:01:55.364Z,31.42
2022-10-17T03:04:25.413Z,26.55
2022-10-17T03:06:58.312Z,23.58
2022-10-17T03:09:28.654Z,43.50
2022-10-17T03:11:58.877Z,43.50
2022-10-17T03:14:28.934Z,41.97
2022-10-17T03:16:59.199Z,35.10
2022-10-17T03:19:29.898Z,41.95
2022-10-17T03:22:02.609Z,39.65
2022-10-17T03:27:03.676Z,43.22
2022-10-17T03:29:33.898Z,47.08
2022-10-17T03:32:05.408Z,49.67
2022-10-17T03:34:35.614Z,37.28
2022-10-17T03:37:08.393Z,54.08
2022-10-17T03:39:40.308Z,41.08
2022-10-17T03:42:10.350Z,48.47
2022-10-17T03:44:40.481Z,40.22
2022-10-17T03:47:13.389Z,44.35
2022-10-17T03:49:44.498Z,36.30
2022-10-17T03:52:18.521Z,33.00
2022-10-17T03:54:48.653Z,39.10
2022-10-17T03:57:19.582Z,38.72
2022-10-17T03:59:50.142Z,41.95
2022-10-17T04:02:22.552Z,31.75
2022-10-17T04:04:53.207Z,40.50
2022-10-17T04:10:18.257Z,28.90
2022-10-17T04:12:48.712Z,32.22
2022-10-17T04:15:19.887Z,32.03
2022-10-17T04:17:49.995Z,28.95
2022-10-17T04:20:20.611Z,35.55
2022-10-17T04:22:53.266Z,39.80
2022-10-17T04:25:23.308Z,26.40
2022-10-17T04:27:55.053Z,29.65
2022-10-17T04:30:29.254Z,33.72
2022-10-17T04:32:59.357Z,25.92
2022-10-17T04:35:31.313Z,26.73
2022-10-17T04:38:08.331Z,32.30
2022-10-17T04:40:39.699Z,29.90
2022-10-17T04:43:09.832Z,42.47
2022-10-17T04:45:41.170Z,26.33
2022-10-17T04:48:11.197Z,32.47
2022-10-17T04:50:41.715Z,24.55
2022-10-17T04:53:35.270Z,31.17
2022-10-17T04:56:11.239Z,31.65
2022-10-17T04:58:42.787Z,34.42
2022-10-17T05:01:16.444Z,30.95
2022-10-17T05:03:50.083Z,30.55
2022-10-17T05:06:22.401Z,31.52
2022-10-17T05:09:13.220Z,39.08
2022-10-17T05:11:45.229Z,36.13
2022-10-17T05:14:16.172Z,30.50
2022-10-17T05:16:46.274Z,39.38
2022-10-17T05:19:17.402Z,26.27
2022-10-17T05:21:51.308Z,28.60
2022-10-17T05:24:24.257Z,33.10
2022-10-17T05:26:54.369Z,31.30
2022-10-17T05:29:24.797Z,30.05
2022-10-17T05:34:32.535Z,38.47
2022-10-17T05:37:02.554Z,30.70
2022-10-17T05:39:35.867Z,38.33
2022-10-17T05:42:07.311Z,27.48
2022-10-17T05:44:39.458Z,29.00
2022-10-17T05:47:11.189Z,37.97
2022-10-17T05:49:46.356Z,34.97
2022-10-17T05:52:20.835Z,38.42
2022-10-17T05:55:08.774Z,47.63
2022-10-17T05:57:39.863Z,34.38
2022-10-17T06:00:15.941Z,36.42
2022-10-17T06:02:49.027Z,39.90
2022-10-17T06:05:21.678Z,42.60
2022-10-17T06:07:52.737Z,31.13
2022-10-17T06:10:26.909Z,41.35
2022-10-17T06:12:58.086Z,42.90
2022-10-17T06:15:34.420Z,34.28
2022-10-17T06:18:09.257Z,55.67
2022-10-17T06:20:43.832Z,37.22
2022-10-17T06:23:17.278Z,39.42
2022-10-17T06:26:05.708Z,44.40
2022-10-17T06:28:36.463Z,37.38
2022-10-17T06:31:10.533Z,45.05
2022-10-17T06:33:40.946Z,51.85
2022-10-17T06:36:14.743Z,47.88
2022-10-17T06:38:46.330Z,50.13
2022-10-17T06:41:39.762Z,56.13
2022-10-17T06:44:11.986Z,63.88
2022-10-17T06:47:05.417Z,57.78
2022-10-17T06:49:35.904Z,49.17
2022-10-17T06:52:26.916Z,56.20
2022-10-17T06:55:18.308Z,47.53
2022-10-17T06:58:15.193Z,50.15
2022-10-17T07:01:03.330Z,50.78
2022-10-17T07:03:34.278Z,43.00
2022-10-17T07:06:04.582Z,37.20
2022-10-17T07:08:35.158Z,52.35
2022-10-17T07:11:12.860Z,42.58
2022-10-17T07:13:46.059Z,56.80
2022-10-17T07:16:16.793Z,41.42
2022-10-17T07:18:52.498Z,32.30
2022-10-17T07:21:23.415Z,26.80
2022-10-17T07:23:53.749Z,28.60
2022-10-17T07:26:24.670Z,35.03
2022-10-17T07:28:58.619Z,20.77
2022-10-17T07:31:37.382Z,34.85
2022-10-17T07:34:07.648Z,21.92
2022-10-17T07:36:38.085Z,34.55
2022-10-17T07:39:10.299Z,27.60
2022-10-17T07:41:41.711Z,36.30
2022-10-17T07:44:15.430Z,28.23
2022-10-17T07:46:49.794Z,23.75
2022-10-17T07:49:21.299Z,35.90
2022-10-17T07:51:52.183Z,23.90
2022-10-17T07:54:22.549Z,29.08
2022-10-17T07:56:52.579Z,20.23
2022-10-17T07:59:25.208Z,17.08
2022-10-17T08:01:59.639Z,44.35
2022-10-17T08:04:32.550Z,33.25
2022-10-17T08:07:19.602Z,29.05
2022-10-17T08:09:52.712Z,29.30
2022-10-17T08:12:23.091Z,25.98
2022-10-17T08:14:55.835Z,26.38
2022-10-17T08:17:25.874Z,34.03
2022-10-17T08:19:56.077Z,33.80
2022-10-17T08:22:26.903Z,31.35
2022-10-17T08:24:57.416Z,39.17
2022-10-17T08:27:29.036Z,41.90
2022-10-17T08:30:01.901Z,41.33
2022-10-17T08:32:32.712Z,42.35
2022-10-17T08:35:03.219Z,45.55
2022-10-17T08:37:33.722Z,48.08
2022-10-17T08:40:04.205Z,56.65
2022-10-17T08:42:48.842Z,61.45
2022-10-17T08:45:31.749Z,53.72
2022-10-17T08:48:04.050Z,48.80
2022-10-17T08:50:39.314Z,48.15
2022-10-17T08:53:16.203Z,56.40
2022-10-17T08:55:50.185Z,50.53
2022-10-17T08:58:23.849Z,46.83
2022-10-17T09:01:11.966Z,41.20
2022-10-17T09:04:04.341Z,82.22
2022-10-17T09:06:38.442Z,45.03
2022-10-17T09:09:25.378Z,25.73
2022-10-17T09:12:18.460Z,29.10
2022-10-17T09:15:02.525Z,54.03
2022-10-17T09:17:45.434Z,45.22
2022-10-17T09:20:19.216Z,32.80
2022-10-17T09:22:54.372Z,29.40
2022-10-17T09:25:24.817Z,18.92
2022-10-17T09:27:57.373Z,23.02
2022-10-17T09:30:45.257Z,20.02
2022-10-17T09:33:35.280Z,14.38
2022-10-17T09:36:16.362Z,25.88
2022-10-17T09:38:50.852Z,14.55
2022-10-17T09:44:23.110Z,23.75
2022-10-17T09:47:04.785Z,18.52
2022-10-17T09:49:39.308Z,16.70
2022-10-17T09:52:15.249Z,15.82
2022-10-17T09:54:48.910Z,13.55
2022-10-17T09:57:20.926Z,12.07
2022-10-17T10:00:00.501Z,28.88
2022-10-17T10:02:34.137Z,15.80
2022-10-17T10:05:11.552Z,24.25
2022-10-17T10:07:42.959Z,13.43
2022-10-17T10:10:30.112Z,12.20
2022-10-17T10:13:09.968Z,12.63
2022-10-17T10:15:42.967Z,19.88
2022-10-17T10:18:35.897Z,28.55
2022-10-17T10:21:11.617Z,20.65
2022-10-17T10:23:43.256Z,17.13
2022-10-17T10:26:26.550Z,26.17
2022-10-17T10:29:01.001Z,11.25
2022-10-17T10:31:37.520Z,10.90
2022-10-17T10:34:21.121Z,17.40
2022-10-17T10:37:02.683Z,24.40
2022-10-17T10:39:44.996Z,23.40
2022-10-17T10:42:25.556Z,18.85
2022-10-17T10:44:57.966Z,31.33
2022-10-17T10:47:31.046Z,13.55
2022-10-17T10:50:21.530Z,15.60
2022-10-17T10:53:03.777Z,13.55
2022-10-17T10:55:39.599Z,17.02
2022-10-17T10:58:26.376Z,17.73
2022-10-17T11:00:59.130Z,12.35
2022-10-17T11:03:37.001Z,25.00
2022-10-17T11:06:15.887Z,18.35
2022-10-17T11:08:53.463Z,19.45
2022-10-17T11:11:32.796Z,18.75
2022-10-17T11:14:13.006Z,11.75
2022-10-17T11:16:50.841Z,18.35
2022-10-17T11:19:28.372Z,23.38
2022-10-17T11:22:08.622Z,10.35
2022-10-17T11:24:47.753Z,18.13
2022-10-17T11:27:18.213Z,15.35
2022-10-17T11:29:49.028Z,21.05
2022-10-17T11:32:25.914Z,24.98
2022-10-17T11:35:00.912Z,12.30
2022-10-17T11:37:37.370Z,9.27
2022-10-17T11:40:22.028Z,18.08
2022-10-17T11:42:59.828Z,21.83
2022-10-17T11:45:37.247Z,9.05
2022-10-17T11:48:16.154Z,7.10
2022-10-17T11:53:50.773Z,11.20
2022-10-17T11:56:29.850Z,25.17
2022-10-17T11:59:12.678Z,13.45
2022-10-17T12:01:49.496Z,13.40
2022-10-17T12:04:29.558Z,13.20
2022-10-17T12:07:12.183Z,11.27
2022-10-17T12:10:00.545Z,16.10
2022-10-17T12:12:36.063Z,17.45
2022-10-17T12:15:31.910Z,13.32
2022-10-17T12:18:04.474Z,23.60
2022-10-17T12:20:39.559Z,17.33
2022-10-17T12:23:29.000Z,16.38
2022-10-17T12:26:04.771Z,9.07
2022-10-17T12:28:45.588Z,11.13
2022-10-17T12:31:33.302Z,14.48
2022-10-17T12:34:06.261Z,10.68
2022-10-17T12:36:47.037Z,8.23
2022-10-17T12:39:49.506Z,17.50
2022-10-17T12:42:49.489Z,10.52
2022-10-17T12:45:52.028Z,9.75
2022-10-17T12:49:02.325Z,12.68
2022-10-17T12:51:37.383Z,14.77
2022-10-17T12:54:15.580Z,6.65
2022-10-17T12:56:48.762Z,12.35
2022-10-17T12:59:21.807Z,12.43
2022-10-17T13:02:00.986Z,15.10
2022-10-17T13:04:32.888Z,10.38
2022-10-17T13:07:03.487Z,14.60
2022-10-17T13:09:36.168Z,8.57
2022-10-17T13:12:09.143Z,11.52
2022-10-17T13:14:44.623Z,19.83
2022-10-17T13:17:28.389Z,11.27
2022-10-17T13:19:59.479Z,10.50
2022-10-17T13:22:32.509Z,12.95
2022-10-17T13:25:11.718Z,10.48
2022-10-17T13:27:41.939Z,20.02
2022-10-17T13:30:31.099Z,16.92
2022-10-17T13:33:06.698Z,9.75
2022-10-17T13:35:59.464Z,6.00
2022-10-17T13:38:34.170Z,14.57
2022-10-17T13:41:33.684Z,13.48
2022-10-17T13:44:00.223Z,19.90
2022-10-17T13:46:39.271Z,13.15
2022-10-17T13:49:35.919Z,7.93
2022-10-17T13:52:08.878Z,12.60
2022-10-17T13:54:41.499Z,9.10
2022-10-17T13:57:22.387Z,21.13
2022-10-17T13:59:56.633Z,7.43
2022-10-17T14:02:28.896Z,19.52
2022-10-17T14:05:18.929Z,13.25
2022-10-17T14:08:15.129Z,11.75
2022-10-17T14:10:47.764Z,8.43
2022-10-17T14:13:25.297Z,17.63
2022-10-17T14:15:56.985Z,13.05
2022-10-17T14:18:35.795Z,12.48
2022-10-17T14:24:17.082Z,5.97
2022-10-17T14:26:51.709Z,11.75
2022-10-17T14:29:27.834Z,28.85
2022-10-17T14:32:05.838Z,14.43
2022-10-17T14:34:41.092Z,16.42
2022-10-17T14:37:28.100Z,21.20
2022-10-17T14:39:59.658Z,13.15
2022-10-17T14:42:30.001Z,10.63
2022-10-17T14:45:10.067Z,9.90
2022-10-17T14:47:44.426Z,7.82
2022-10-17T14:50:28.390Z,11.63
2022-10-17T14:53:09.294Z,16.60
2022-10-17T14:55:41.383Z,12.25
2022-10-17T14:58:21.728Z,20.73
2022-10-17T15:00:55.746Z,24.60
2022-10-17T15:03:25.998Z,10.43
2022-10-17T15:05:58.790Z,13.32
2022-10-17T15:08:31.530Z,17.83
2022-10-17T15:11:01.943Z,29.58
2022-10-17T15:13:38.538Z,18.48
2022-10-17T15:16:18.799Z,18.85
2022-10-17T15:18:49.040Z,12.15
2022-10-17T15:21:33.297Z,11.23
2022-10-17T15:24:11.267Z,12.52
2022-10-17T15:26:43.846Z,24.65
2022-10-17T15:29:18.704Z,12.83
2022-10-17T15:31:49.469Z,23.48
2022-10-17T15:34:20.597Z,9.45
2022-10-17T15:36:54.345Z,9.30
2022-10-17T15:39:27.954Z,23.63
2022-10-17T15:41:59.090Z,16.42
2022-10-17T15:44:29.251Z,15.52
2022-10-17T15:47:00.566Z,15.90
2022-10-17T15:49:30.777Z,20.75
2022-10-17T15:52:01.346Z,20.42
2022-10-17T15:54:34.548Z,27.70
2022-10-17T15:57:04.999Z,19.05
2022-10-17T15:59:38.208Z,13.02
2022-10-17T16:02:16.066Z,12.52
2022-10-17T16:04:46.704Z,16.95
2022-10-17T16:07:18.029Z,10.18
2022-10-17T16:09:51.405Z,13.68
2022-10-17T16:12:27.610Z,11.90
2022-10-17T16:14:58.155Z,15.40
2022-10-17T16:17:28.810Z,10.80
2022-10-17T16:19:59.250Z,9.02
2022-10-17T16:22:37.661Z,14.43
2022-10-17T16:25:19.658Z,15.25
2022-10-17T16:27:51.706Z,19.25
2022-10-17T16:30:23.554Z,17.35
2022-10-17T16:32:58.019Z,14.25
2022-10-17T16:35:36.512Z,24.30
2022-10-17T16:38:08.203Z,24.73
2022-10-17T16:40:42.600Z,24.02
2022-10-17T16:43:16.649Z,13.45
2022-10-17T16:45:48.329Z,27.25
2022-10-17T16:48:19.391Z,27.63
2022-10-17T16:50:49.540Z,17.30
2022-10-17T16:53:22.356Z,12.43
2022-10-17T16:56:07.829Z,11.93
2022-10-17T16:58:38.042Z,14.90
2022-10-17T17:01:14.042Z,18.42
2022-10-17T17:03:47.790Z,23.30
2022-10-17T17:06:20.948Z,20.45
2022-10-17T17:08:54.455Z,15.57
2022-10-17T17:11:30.055Z,18.70
2022-10-17T17:14:02.422Z,11.88
2022-10-17T17:16:35.519Z,9.38
2022-10-17T17:19:08.779Z,35.75
2022-10-17T17:21:39.058Z,34.55
2022-10-17T17:24:09.877Z,14.20
2022-10-17T17:26:47.539Z,12.05
2022-10-17T17:29:17.753Z,15.07
2022-10-17T17:31:48.006Z,24.85
2022-10-17T17:34:18.627Z,18.60
2022-10-17T17:36:55.513Z,20.67
2022-10-17T17:39:27.170Z,17.38
2022-10-17T17:42:00.067Z,15.48
2022-10-17T17:44:30.118Z,21.45
2022-10-17T17:47:00.228Z,15.68
2022-10-17T17:49:30.352Z,14.18
2022-10-17T17:52:00.437Z,17.02
2022-10-17T17:54:30.946Z,11.32
2022-10-17T17:57:04.313Z,13.77
2022-10-17T17:59:34.512Z,14.63
2022-10-17T18:02:07.006Z,25.15
2022-10-17T18:04:37.285Z,14.00
2022-10-17T18:07:07.486Z,9.82
2022-10-17T18:09:38.641Z,11.02
2022-10-17T18:12:12.347Z,12.30
2022-10-17T18:17:13.588Z,12.85
2022-10-17T18:20:08.249Z,16.58
2022-10-17T18:22:45.895Z,10.48
2022-10-17T18:25:16.420Z,18.13
2022-10-17T18:27:51.269Z,17.13
2022-10-17T18:32:57.781Z,12.02
2022-10-17T18:35:28.095Z,16.42
2022-10-17T18:37:58.126Z,17.17
2022-10-17T18:40:28.447Z,20.73
2022-10-17T18:43:01.280Z,13.30
2022-10-17T18:45:34.336Z,14.97
2022-10-17T18:48:04.871Z,21.67
2022-10-17T18:50:35.340Z,18.00
2022-10-17T18:53:06.176Z,19.90
2022-10-17T18:55:36.331Z,27.67
2022-10-17T18:58:11.296Z,18.60
2022-10-17T19:00:42.175Z,19.15
2022-10-17T19:03:12.718Z,20.92
2022-10-17T19:05:45.310Z,13.70
2022-10-17T19:08:16.191Z,13.90
2022-10-17T19:10:46.727Z,15.38
2022-10-17T19:13:21.583Z,23.45
2022-10-17T19:15:52.661Z,28.38
2022-10-17T19:18:22.738Z,11.07
2022-10-17T19:20:53.265Z,14.45
2022-10-17T19:23:23.463Z,10.05
2022-10-17T19:25:54.961Z,23.25
2022-10-17T19:28:30.073Z,11.85
2022-10-17T19:31:00.289Z,21.65
2022-10-17T19:33:30.821Z,21.88
2022-10-17T19:36:03.071Z,16.73
2022-10-17T19:38:33.548Z,24.63
2022-10-17T19:41:04.353Z,30.77
2022-10-17T19:43:38.870Z,28.48
2022-10-17T19:46:11.811Z,21.38
2022-10-17T19:48:42.036Z,21.30
2022-10-17T19:51:15.288Z,14.43
2022-10-17T19:53:46.093Z,24.52
2022-10-17T19:56:18.713Z,31.88
2022-10-17T19:58:54.322Z,35.85
2022-10-17T20:01:27.575Z,26.30
2022-10-17T20:03:58.892Z,28.95
2022-10-17T20:06:30.219Z,31.33
2022-10-17T20:09:00.513Z,34.60
2022-10-17T20:11:32.551Z,32.08
2022-10-17T20:14:06.121Z,35.08
2022-10-17T20:16:39.049Z,45.80
2022-10-17T20:19:11.411Z,33.50
2022-10-17T20:21:43.502Z,31.05
2022-10-17T20:24:16.935Z,29.25
2022-10-17T20:26:47.620Z,31.52
2022-10-17T20:29:24.598Z,35.45
2022-10-17T20:31:56.875Z,46.38
2022-10-17T20:34:27.859Z,50.58
2022-10-17T20:37:01.333Z,44.65
2022-10-17T20:39:32.198Z,44.85
2022-10-17T20:42:02.681Z,33.55
2022-10-17T20:44:36.155Z,36.80
2022-10-17T20:47:15.956Z,48.83
2022-10-17T20:49:46.662Z,50.92
2022-10-17T20:52:17.192Z,48.10
2022-10-17T20:54:47.345Z,67.20
2022-10-17T20:57:17.600Z,44.92
2022-10-17T20:59:50.636Z,53.05
2022-10-17T21:02:20.855Z,53.92
2022-10-17T21:04:51.180Z,54.05
2022-10-17T21:07:22.485Z,43.83
2022-10-17T21:09:52.528Z,59.28
2022-10-17T21:12:31.338Z,56.78
2022-10-17T21:15:12.629Z,61.13
2022-10-17T21:17:43.219Z,60.17
2022-10-17T21:20:15.162Z,51.85
2022-10-17T21:22:45.566Z,52.03
2022-10-17T21:25:16.223Z,71.15
2022-10-17T21:27:46.752Z,59.95
2022-10-17T21:30:21.216Z,54.40
2022-10-17T21:32:57.332Z,56.90
2022-10-17T21:35:27.827Z,46.72
2022-10-17T21:37:57.851Z,53.70
2022-10-17T21:40:27.875Z,43.65
2022-10-17T21:42:57.948Z,47.03
2022-10-17T21:45:38.644Z,47.95
2022-10-17T21:48:13.262Z,51.05
2022-10-17T21:50:44.515Z,49.00
2022-10-17T21:53:17.512Z,48.05
2022-10-17T21:55:47.561Z,50.40
2022-10-17T21:58:18.048Z,46.60
2022-10-17T22:00:52.657Z,48.60
2022-10-17T22:03:23.087Z,37.17
2022-10-17T22:06:06.915Z,43.10
2022-10-17T22:08:43.744Z,40.40
2022-10-17T22:11:16.113Z,39.65
2022-10-17T22:13:46.615Z,53.75
2022-10-17T22:16:19.918Z,54.38
2022-10-17T22:18:49.937Z,69.00
2022-10-17T22:21:25.443Z,62.92
2022-10-17T22:23:59.606Z,49.30
2022-10-17T22:26:30.583Z,46.53
2022-10-17T22:29:00.867Z,68.22
2022-10-17T22:31:33.763Z,57.33
2022-10-17T22:34:05.331Z,54.83
2022-10-17T22:36:36.290Z,59.58
2022-10-17T22:39:07.349Z,63.88
2022-10-17T22:41:37.383Z,55.72
2022-10-17T22:44:08.419Z,60.05
2022-10-17T22:46:42.976Z,65.05
2022-10-17T22:49:13.089Z,57.22
2022-10-17T22:51:43.492Z,45.50
2022-10-17T22:54:13.564Z,58.13
2022-10-17T22:56:43.771Z,44.80
2022-10-17T22:59:13.780Z,67.50
2022-10-17T23:01:47.279Z,47.10
2022-10-17T23:04:19.922Z,55.15
2022-10-17T23:06:49.953Z,49.40
2022-10-17T23:09:20.079Z,52.63
2022-10-17T23:11:50.597Z,63.20
2022-10-17T23:14:21.007Z,50.65
2022-10-17T23:16:53.665Z,52.30
2022-10-17T23:19:23.716Z,70.90
2022-10-17T23:21:54.256Z,57.30
2022-10-17T23:24:24.260Z,50.53
2022-10-17T23:26:54.543Z,55.70
2022-10-17T23:29:25.130Z,46.13
2022-10-17T23:31:59.697Z,55.55
2022-10-17T23:34:31.545Z,51.63
2022-10-17T23:37:01.718Z,42.25
2022-10-17T23:39:32.065Z,37.38
2022-10-17T23:42:02.288Z,42.22
2022-10-17T23:44:32.321Z,42.05
2022-10-17T23:47:05.274Z,37.70
2022-10-17T23:49:35.331Z,36.27
2022-10-17T23:52:05.568Z,32.45
2022-10-17T23:54:36.229Z,30.90
2022-10-17T23:57:06.712Z,42.60
2022-10-17T23:59:36.918Z,34.25
